Airfield :
LOGIN :

Register | Disclaimer

   EN    FR    IT 

 










Legend :    VFR   Marginal VFR   IFR   Intensive IFR   Very Intensive IFR
Visi :
Ceiling :
>= 8 km
>= 3000ft
5 to 8 km
1000 to 3000 ft
1500m to 5 km
500 to 1000 ft
800 to 1500m
200 to 500 ft
< 800m
< 200 ft
Symbols :   Thunderstorms  Fog  Heavy snow  Heavy precipitations  Wind > 20 kt
SIGMETs :     Misc.  Thunderstorms  Icing  Turbulence  Mountain Waves  Volcanic Ashes






- Airport Elevation : 100 ft


EBDT - Schaffen

CURRENT METAR :
  • 222025Z AUTO 24013KT 9999 -RA FEW016/// SCT022/// BKN029/// 10/08 Q1022 WHT

EXPIRED METARs :
  • 221955Z AUTO 25014KT 9999 -RA FEW016/// SCT021/// BKN027/// 10/08 Q1022 WHT
  • 221925Z AUTO 24014G25KT 9999 -RA FEW015/// SCT020/// BKN037/// 10/08 Q1022 WHT
  • 221855Z AUTO 24014KT 9999 FEW014/// SCT018/// BKN022/// 11/08 Q1022 WHT
  • 221825Z AUTO 23012KT 9999 FEW010/// SCT015/// BKN018/// 10/08 Q1022 WHT
  • 221755Z AUTO 23009KT 9999 DZ SCT008/// BKN010/// OVC014/// 10/08 Q1022 GRN

Expired Forecast.



MET'MAP, your aeronautical weather chart ! - Copyright ORBIFLY December 2007 - Disclaimer

ORBIFLY MET'MAP TEAM :

Programming & Development : Alexandra Zaïnal
Concept & original design : Baudouin d'Aumeries
Assistance for programming : Marc-Olivier Méhu
Technical & hardware support : Manuel Goepfert

Contact : metmap@orbifly.com




SOURCES & CREDITS :

   NOAA